Time;durP1;ratioP1;P1;durP2;ratioP2;P2;SDS_P1;SDS_P2;PMS_P1;PMS_P2;Temp;Humidity;BMP_temperature;BMP_pressure;BME280_temperature;BME280_humidity;BME280_pressure;Samples;Min_cycle;Max_cycle;Signal;HPM_P1;HPM_P2
2023/12/07 00:01:17;;;;;;;52.27;19.13;;;;;;;;;;5034772;28;20497;-65
2023/12/07 00:03:42;;;;;;;52.80;19.13;;;;;;;;;;5030467;28;20029;-63
2023/12/07 00:06:08;;;;;;;52.40;19.83;;;;;;;;;;5034246;28;20150;-62
2023/12/07 00:08:33;;;;;;;52.83;19.80;;;;;;;;;;5033871;28;20037;-63
2023/12/07 00:10:58;;;;;;;52.87;19.13;;;;;;;;;;5028239;28;20036;-64
2023/12/07 00:13:23;;;;;;;54.67;19.60;;;;;;;;;;5036904;28;20037;-63
2023/12/07 00:15:49;;;;;;;49.43;20.10;;;;;;;;;;5032884;28;20053;-61
2023/12/07 00:18:14;;;;;;;54.03;18.60;;;;;;;;;;5035736;28;20021;-63
2023/12/07 00:20:39;;;;;;;53.90;19.03;;;;;;;;;;5030502;28;20469;-62
2023/12/07 00:23:04;;;;;;;52.83;19.50;;;;;;;;;;5034353;28;20104;-63
2023/12/07 00:25:30;;;;;;;56.60;19.63;;;;;;;;;;5038145;28;20091;-63
2023/12/07 00:27:55;;;;;;;53.97;19.43;;;;;;;;;;5036339;28;20036;-63
2023/12/07 00:30:20;;;;;;;51.33;18.77;;;;;;;;;;5032314;28;20036;-64
2023/12/07 00:32:46;;;;;;;51.73;18.77;;;;;;;;;;5027433;28;20449;-63
2023/12/07 00:35:11;;;;;;;53.03;19.10;;;;;;;;;;5035367;28;20033;-63
2023/12/07 00:37:37;;;;;;;53.83;19.77;;;;;;;;;;5028714;28;20033;-63
2023/12/07 00:40:03;;;;;;;47.57;18.23;;;;;;;;;;5034384;28;20413;-64
2023/12/07 00:42:28;;;;;;;55.03;19.70;;;;;;;;;;5030281;28;20029;-64
2023/12/07 00:44:54;;;;;;;53.27;19.37;;;;;;;;;;5033342;28;20024;-64
2023/12/07 00:47:20;;;;;;;47.73;18.03;;;;;;;;;;5034761;28;20505;-62
2023/12/07 00:49:45;;;;;;;49.07;19.53;;;;;;;;;;5036480;28;20063;-64
2023/12/07 00:52:10;;;;;;;56.40;19.37;;;;;;;;;;5037420;28;20104;-63
2023/12/07 00:54:36;;;;;;;54.27;20.03;;;;;;;;;;5033145;28;20059;-63
2023/12/07 00:57:01;;;;;;;50.57;18.13;;;;;;;;;;5037907;28;20096;-64
2023/12/07 00:59:26;;;;;;;57.57;19.67;;;;;;;;;;5036235;28;20037;-65
2023/12/07 01:01:51;;;;;;;51.50;20.17;;;;;;;;;;5035591;28;20033;-64
2023/12/07 01:04:17;;;;;;;58.50;19.73;;;;;;;;;;5036775;28;20493;-62
2023/12/07 01:06:43;;;;;;;51.37;18.57;;;;;;;;;;5037165;28;20116;-63
2023/12/07 01:09:12;;;;;;;50.80;17.93;;;;;;;;;;5038072;28;20029;-62
2023/12/07 01:11:38;;;;;;;49.50;18.60;;;;;;;;;;5038565;28;20028;-62
2023/12/07 01:14:03;;;;;;;53.00;19.60;;;;;;;;;;5034374;28;20079;-64
2023/12/07 01:16:28;;;;;;;54.27;19.17;;;;;;;;;;5036735;28;20112;-64
2023/12/07 01:18:53;;;;;;;52.87;18.27;;;;;;;;;;5040541;28;20040;-62
2023/12/07 01:21:19;;;;;;;52.43;18.33;;;;;;;;;;5034651;28;20029;-63
2023/12/07 01:23:45;;;;;;;52.13;18.57;;;;;;;;;;5040217;28;20033;-63
2023/12/07 01:26:10;;;;;;;59.40;19.47;;;;;;;;;;5039371;28;20052;-64
2023/12/07 01:28:35;;;;;;;50.87;18.93;;;;;;;;;;5036256;28;20028;-63
2023/12/07 01:31:00;;;;;;;49.57;18.80;;;;;;;;;;5039198;28;20453;-62
2023/12/07 01:33:26;;;;;;;55.07;18.60;;;;;;;;;;5040345;28;20040;-63
2023/12/07 01:35:51;;;;;;;56.03;19.17;;;;;;;;;;5038074;28;20029;-63
2023/12/07 01:38:17;;;;;;;51.60;19.00;;;;;;;;;;5037928;28;20029;-61
2023/12/07 01:40:42;;;;;;;54.70;19.23;;;;;;;;;;5031660;28;20468;-64
2023/12/07 01:43:07;;;;;;;54.03;19.53;;;;;;;;;;5041894;28;20033;-63
2023/12/07 01:45:32;;;;;;;48.70;18.67;;;;;;;;;;5037235;28;20025;-64
2023/12/07 01:47:59;;;;;;;51.60;19.07;;;;;;;;;;5036140;28;20315;-63
2023/12/07 01:50:25;;;;;;;52.80;18.67;;;;;;;;;;5036258;28;20078;-64
2023/12/07 01:52:52;;;;;;;48.40;17.63;;;;;;;;;;5035346;28;20032;-62
2023/12/07 01:55:18;;;;;;;50.30;18.73;;;;;;;;;;5038554;28;20460;-63
2023/12/07 01:57:44;;;;;;;50.10;19.03;;;;;;;;;;5032910;28;20118;-62
2023/12/07 02:00:10;;;;;;;47.83;18.00;;;;;;;;;;5033804;28;20061;-64
2023/12/07 02:02:35;;;;;;;52.57;18.77;;;;;;;;;;5037922;28;20063;-62
2023/12/07 02:05:01;;;;;;;46.97;18.47;;;;;;;;;;5035522;28;20094;-62
2023/12/07 02:07:27;;;;;;;52.40;18.17;;;;;;;;;;5037930;28;20363;-63
2023/12/07 02:09:52;;;;;;;50.23;17.83;;;;;;;;;;5035625;28;20052;-64
2023/12/07 02:12:19;;;;;;;50.37;19.23;;;;;;;;;;5032111;28;20032;-63
2023/12/07 02:14:44;;;;;;;43.20;17.03;;;;;;;;;;5036929;28;20584;-63
2023/12/07 02:17:09;;;;;;;51.20;18.83;;;;;;;;;;5034378;28;20049;-64
2023/12/07 02:19:47;;;;;;;49.87;18.87;;;;;;;;;;5036634;28;20040;-63
2023/12/07 02:22:16;;;;;;;53.10;19.50;;;;;;;;;;5034161;28;20029;-63
2023/12/07 02:24:47;;;;;;;51.83;18.57;;;;;;;;;;5036592;28;20363;-65
2023/12/07 02:27:13;;;;;;;51.63;17.90;;;;;;;;;;5036155;28;20394;-63
2023/12/07 02:29:38;;;;;;;47.47;18.20;;;;;;;;;;5036018;28;20030;-62
2023/12/07 02:32:04;;;;;;;47.87;18.53;;;;;;;;;;5040252;28;20128;-61
2023/12/07 02:34:29;;;;;;;51.83;19.30;;;;;;;;;;5039048;28;20040;-63
2023/12/07 02:36:57;;;;;;;49.40;18.47;;;;;;;;;;5033724;28;20056;-62
2023/12/07 02:39:23;;;;;;;46.93;16.80;;;;;;;;;;5036762;28;20665;-63
2023/12/07 02:41:49;;;;;;;50.13;18.73;;;;;;;;;;5039528;28;20469;-63
2023/12/07 02:44:14;;;;;;;47.57;18.17;;;;;;;;;;5038426;28;20040;-62
2023/12/07 02:46:40;;;;;;;50.87;18.40;;;;;;;;;;5036580;28;20031;-64
2023/12/07 02:49:05;;;;;;;53.33;18.67;;;;;;;;;;5030389;28;20025;-62
2023/12/07 02:51:30;;;;;;;51.60;18.50;;;;;;;;;;5035829;28;20382;-68
2023/12/07 02:53:55;;;;;;;50.97;18.13;;;;;;;;;;5033414;28;20454;-62
2023/12/07 02:56:21;;;;;;;49.10;18.13;;;;;;;;;;5034597;28;20108;-62
2023/12/07 02:58:46;;;;;;;51.20;17.87;;;;;;;;;;5039673;28;20115;-62
2023/12/07 03:01:11;;;;;;;52.30;17.33;;;;;;;;;;5031184;28;20087;-62
2023/12/07 03:03:38;;;;;;;49.97;17.80;;;;;;;;;;5039067;28;20071;-63
2023/12/07 03:06:03;;;;;;;49.50;17.77;;;;;;;;;;5032689;28;20056;-62
2023/12/07 03:08:29;;;;;;;52.97;18.10;;;;;;;;;;5033155;28;20440;-63
2023/12/07 03:10:54;;;;;;;46.37;17.50;;;;;;;;;;5031781;28;20113;-62
2023/12/07 03:13:19;;;;;;;48.93;18.37;;;;;;;;;;5031169;28;20069;-63
2023/12/07 03:15:45;;;;;;;50.43;17.90;;;;;;;;;;5038016;28;20040;-63
2023/12/07 03:18:10;;;;;;;56.43;19.43;;;;;;;;;;5033804;28;20033;-63
2023/12/07 03:20:36;;;;;;;50.20;18.20;;;;;;;;;;5031868;28;20061;-62
2023/12/07 03:23:01;;;;;;;49.30;17.93;;;;;;;;;;5037201;28;20164;-62
2023/12/07 03:25:26;;;;;;;46.30;18.00;;;;;;;;;;5036374;28;20053;-62
2023/12/07 03:27:52;;;;;;;46.17;17.70;;;;;;;;;;5035924;28;20112;-63
2023/12/07 03:30:17;;;;;;;50.20;17.40;;;;;;;;;;5033395;28;20025;-63
2023/12/07 03:32:42;;;;;;;50.77;17.47;;;;;;;;;;5036946;28;20038;-63
2023/12/07 03:35:08;;;;;;;48.57;17.93;;;;;;;;;;5036416;28;20037;-62
2023/12/07 03:37:33;;;;;;;45.83;17.53;;;;;;;;;;5039780;28;20061;-62
2023/12/07 03:39:58;;;;;;;50.83;18.03;;;;;;;;;;5033765;28;20429;-62
2023/12/07 03:42:23;;;;;;;50.80;17.47;;;;;;;;;;5039131;28;20052;-64
2023/12/07 03:44:49;;;;;;;50.80;17.80;;;;;;;;;;5034554;28;20283;-63
2023/12/07 03:47:14;;;;;;;51.10;17.07;;;;;;;;;;5033035;28;20033;-62
2023/12/07 03:49:41;;;;;;;52.53;17.83;;;;;;;;;;5035255;28;20390;-62
2023/12/07 03:52:06;;;;;;;53.97;17.37;;;;;;;;;;5037465;28;20057;-63
2023/12/07 03:54:32;;;;;;;50.30;18.00;;;;;;;;;;5035784;28;20457;-62
2023/12/07 03:56:57;;;;;;;50.77;17.80;;;;;;;;;;5034142;28;20032;-62
2023/12/07 03:59:23;;;;;;;47.20;17.03;;;;;;;;;;5035608;28;20420;-63
2023/12/07 04:01:48;;;;;;;50.57;18.00;;;;;;;;;;5033892;28;20116;-64
2023/12/07 04:04:13;;;;;;;50.60;18.13;;;;;;;;;;5028744;28;20029;-63
2023/12/07 04:06:38;;;;;;;48.13;18.00;;;;;;;;;;5032761;28;20098;-62
2023/12/07 04:09:04;;;;;;;46.73;17.10;;;;;;;;;;5033317;28;20045;-61
2023/12/07 04:11:29;;;;;;;45.33;17.03;;;;;;;;;;5033604;28;20033;-62
2023/12/07 04:13:54;;;;;;;43.17;17.37;;;;;;;;;;5029810;28;20040;-61
2023/12/07 04:16:20;;;;;;;44.93;16.37;;;;;;;;;;5031989;28;20041;-62
2023/12/07 04:18:45;;;;;;;49.23;17.03;;;;;;;;;;5031103;28;20038;-62
2023/12/07 04:21:10;;;;;;;44.57;17.17;;;;;;;;;;5028348;28;20116;-63
2023/12/07 04:23:35;;;;;;;44.97;16.60;;;;;;;;;;5037762;28;20386;-63
2023/12/07 04:26:01;;;;;;;44.93;17.47;;;;;;;;;;5038400;28;20029;-63
2023/12/07 04:28:26;;;;;;;43.67;17.37;;;;;;;;;;5035213;28;20032;-63
2023/12/07 04:30:52;;;;;;;44.73;17.07;;;;;;;;;;5042528;28;20021;-64
2023/12/07 04:33:17;;;;;;;42.07;16.40;;;;;;;;;;5040465;28;20041;-63
2023/12/07 04:35:42;;;;;;;44.93;16.87;;;;;;;;;;5040413;28;20631;-62
2023/12/07 04:38:08;;;;;;;41.30;16.50;;;;;;;;;;5038905;28;20033;-64
2023/12/07 04:40:33;;;;;;;43.63;16.50;;;;;;;;;;5041405;28;20036;-62
2023/12/07 04:42:58;;;;;;;44.60;17.30;;;;;;;;;;5038530;28;20032;-62
2023/12/07 04:45:24;;;;;;;44.27;17.60;;;;;;;;;;5039791;28;20025;-64
2023/12/07 04:47:49;;;;;;;43.07;16.90;;;;;;;;;;5036021;28;20037;-64
2023/12/07 04:50:14;;;;;;;46.77;17.93;;;;;;;;;;5038563;28;20393;-63
2023/12/07 04:52:39;;;;;;;43.57;16.97;;;;;;;;;;5040676;28;20048;-63
2023/12/07 04:55:08;;;;;;;49.70;16.80;;;;;;;;;;5036395;28;20482;-63
2023/12/07 04:57:34;;;;;;;43.40;16.50;;;;;;;;;;5036240;28;20036;-64
2023/12/07 04:59:59;;;;;;;45.50;16.13;;;;;;;;;;5040785;28;20055;-63
2023/12/07 05:02:24;;;;;;;45.50;17.47;;;;;;;;;;5039265;28;20048;-63
2023/12/07 05:04:50;;;;;;;41.67;16.73;;;;;;;;;;5038446;28;20683;-62
2023/12/07 05:07:15;;;;;;;43.87;16.77;;;;;;;;;;5035749;28;20041;-63
2023/12/07 05:09:40;;;;;;;46.87;16.63;;;;;;;;;;5039322;28;20393;-64
2023/12/07 05:12:06;;;;;;;49.80;17.70;;;;;;;;;;5031025;28;20107;-67
2023/12/07 05:14:31;;;;;;;40.73;16.67;;;;;;;;;;5035174;28;20084;-66
2023/12/07 05:16:57;;;;;;;45.00;16.67;;;;;;;;;;5039499;28;20044;-68
2023/12/07 05:19:22;;;;;;;46.03;16.40;;;;;;;;;;5039861;28;20071;-69
2023/12/07 05:21:47;;;;;;;43.80;16.53;;;;;;;;;;5040265;28;20406;-69
2023/12/07 05:24:13;;;;;;;44.20;16.63;;;;;;;;;;5036920;28;20045;-68
2023/12/07 05:26:40;;;;;;;42.67;17.17;;;;;;;;;;5033100;28;20029;-66
2023/12/07 05:29:05;;;;;;;43.93;16.80;;;;;;;;;;5036223;28;20050;-66
2023/12/07 05:31:31;;;;;;;45.37;17.63;;;;;;;;;;5033871;28;20055;-66
2023/12/07 05:33:56;;;;;;;43.20;17.23;;;;;;;;;;5039514;28;20032;-67
2023/12/07 05:36:21;;;;;;;42.73;16.43;;;;;;;;;;5036203;28;20029;-68
2023/12/07 05:38:46;;;;;;;42.47;16.10;;;;;;;;;;5038029;28;20531;-67
2023/12/07 05:41:12;;;;;;;44.60;16.67;;;;;;;;;;5037192;28;20237;-68
2023/12/07 05:43:40;;;;;;;44.33;17.00;;;;;;;;;;5039007;28;20080;-67
2023/12/07 05:46:05;;;;;;;43.13;17.10;;;;;;;;;;5037233;28;20036;-67
2023/12/07 05:48:30;;;;;;;47.30;17.50;;;;;;;;;;5036267;28;20389;-68
2023/12/07 05:50:56;;;;;;;47.60;17.20;;;;;;;;;;5037858;28;20041;-68
2023/12/07 05:53:21;;;;;;;44.80;17.53;;;;;;;;;;5039165;28;20118;-67
2023/12/07 05:55:46;;;;;;;39.77;16.03;;;;;;;;;;5038243;28;20119;-66
2023/12/07 05:58:11;;;;;;;41.20;16.30;;;;;;;;;;5039885;28;20029;-67
2023/12/07 06:00:37;;;;;;;45.00;17.10;;;;;;;;;;5036966;28;20088;-67
2023/12/07 06:03:03;;;;;;;41.57;17.53;;;;;;;;;;5038560;28;20049;-68
2023/12/07 06:05:28;;;;;;;41.63;16.33;;;;;;;;;;5037751;28;20029;-65
2023/12/07 06:07:54;;;;;;;44.67;16.07;;;;;;;;;;5035729;28;20063;-65
2023/12/07 06:10:20;;;;;;;43.03;16.30;;;;;;;;;;5035978;28;20133;-67
2023/12/07 06:12:45;;;;;;;35.77;15.90;;;;;;;;;;5033751;28;20442;-66
2023/12/07 06:15:10;;;;;;;41.47;16.77;;;;;;;;;;5036616;28;20053;-66
2023/12/07 06:17:36;;;;;;;37.67;16.70;;;;;;;;;;5032545;28;20071;-67
2023/12/07 06:20:03;;;;;;;39.40;16.37;;;;;;;;;;5041227;28;20029;-67
2023/12/07 06:22:29;;;;;;;46.83;17.07;;;;;;;;;;5033559;28;20028;-63
2023/12/07 06:24:54;;;;;;;40.53;16.37;;;;;;;;;;5032433;28;20116;-64
2023/12/07 06:27:19;;;;;;;35.80;15.90;;;;;;;;;;5033175;28;20096;-64
2023/12/07 06:29:45;;;;;;;39.07;15.83;;;;;;;;;;5037114;28;20083;-64
2023/12/07 06:32:10;;;;;;;38.43;16.33;;;;;;;;;;5037011;28;20038;-64
2023/12/07 06:34:39;;;;;;;43.07;16.93;;;;;;;;;;5030644;28;20068;-64
2023/12/07 06:37:04;;;;;;;39.63;15.93;;;;;;;;;;5031228;28;20041;-64
2023/12/07 06:39:29;;;;;;;39.97;17.23;;;;;;;;;;5038631;28;20021;-64
2023/12/07 06:41:55;;;;;;;40.67;17.40;;;;;;;;;;5035365;28;20091;-63
2023/12/07 06:44:20;;;;;;;39.10;16.50;;;;;;;;;;5033643;28;20021;-64
2023/12/07 06:46:45;;;;;;;39.77;17.70;;;;;;;;;;5036644;28;20041;-65
2023/12/07 06:49:12;;;;;;;39.83;15.80;;;;;;;;;;5041724;28;20029;-63
2023/12/07 06:51:38;;;;;;;39.23;15.87;;;;;;;;;;5037227;28;20025;-64
2023/12/07 06:54:04;;;;;;;40.07;15.90;;;;;;;;;;5035525;28;20036;-64
2023/12/07 06:56:29;;;;;;;32.67;15.40;;;;;;;;;;5035181;28;20155;-63
2023/12/07 06:58:54;;;;;;;40.43;17.57;;;;;;;;;;5036499;28;20060;-63
2023/12/07 07:01:19;;;;;;;39.47;16.40;;;;;;;;;;5035135;28;20033;-64
2023/12/07 07:03:45;;;;;;;34.77;15.30;;;;;;;;;;5035093;28;20029;-64
2023/12/07 07:06:10;;;;;;;36.77;16.47;;;;;;;;;;5038688;28;20045;-64
2023/12/07 07:08:35;;;;;;;41.30;16.13;;;;;;;;;;5033566;28;20440;-62
2023/12/07 07:11:00;;;;;;;38.03;15.90;;;;;;;;;;5032971;28;20041;-63
2023/12/07 07:13:26;;;;;;;39.27;16.63;;;;;;;;;;5033857;28;20044;-63
2023/12/07 07:15:51;;;;;;;38.80;15.63;;;;;;;;;;5032235;28;20049;-64
2023/12/07 07:18:16;;;;;;;39.47;16.47;;;;;;;;;;5037361;28;20029;-64
2023/12/07 07:20:41;;;;;;;34.90;15.77;;;;;;;;;;5034182;28;20033;-64
2023/12/07 07:23:08;;;;;;;36.10;15.27;;;;;;;;;;5031247;28;20022;-64
2023/12/07 07:25:33;;;;;;;38.67;15.70;;;;;;;;;;5034734;28;20029;-63
2023/12/07 07:27:58;;;;;;;39.40;16.17;;;;;;;;;;5036926;28;20499;-62
2023/12/07 07:30:24;;;;;;;39.77;16.17;;;;;;;;;;5035644;28;20105;-64
2023/12/07 07:32:49;;;;;;;39.53;15.53;;;;;;;;;;5027817;28;20052;-63
2023/12/07 07:35:15;;;;;;;37.30;16.37;;;;;;;;;;5030533;28;20099;-64
2023/12/07 07:37:41;;;;;;;40.93;15.63;;;;;;;;;;5034239;28;20029;-64
2023/12/07 07:40:06;;;;;;;38.93;15.67;;;;;;;;;;5037132;28;20045;-64
2023/12/07 07:42:35;;;;;;;35.57;15.53;;;;;;;;;;5028753;28;20455;-63
2023/12/07 07:45:00;;;;;;;33.63;14.17;;;;;;;;;;5032885;28;20041;-63
2023/12/07 07:47:25;;;;;;;34.07;15.70;;;;;;;;;;5039675;28;20813;-63
2023/12/07 07:49:50;;;;;;;36.00;15.03;;;;;;;;;;5035509;28;20053;-63
2023/12/07 07:52:16;;;;;;;36.67;15.80;;;;;;;;;;5032367;28;20037;-62
2023/12/07 07:54:42;;;;;;;37.27;15.30;;;;;;;;;;5030591;28;20037;-63
2023/12/07 07:57:07;;;;;;;33.83;15.50;;;;;;;;;;5032628;28;20034;-63
2023/12/07 07:59:32;;;;;;;34.77;15.40;;;;;;;;;;5036977;28;20356;-63
2023/12/07 08:01:58;;;;;;;37.03;16.17;;;;;;;;;;5033592;28;20033;-64
2023/12/07 08:04:23;;;;;;;35.17;15.43;;;;;;;;;;5032504;28;20473;-63
2023/12/07 08:06:48;;;;;;;36.43;15.80;;;;;;;;;;5033264;28;20079;-65
2023/12/07 08:09:14;;;;;;;36.27;15.13;;;;;;;;;;5034273;28;20404;-63
2023/12/07 08:11:39;;;;;;;35.20;16.30;;;;;;;;;;5035029;28;20033;-63
2023/12/07 08:14:04;;;;;;;37.13;15.77;;;;;;;;;;5034472;28;20095;-64
2023/12/07 08:16:30;;;;;;;37.17;16.60;;;;;;;;;;5033060;28;20112;-64
2023/12/07 08:18:55;;;;;;;33.33;15.47;;;;;;;;;;5032154;28;20485;-65
2023/12/07 08:21:24;;;;;;;34.27;15.43;;;;;;;;;;5034075;28;20048;-64
2023/12/07 08:23:49;;;;;;;38.17;16.23;;;;;;;;;;5038168;28;20104;-63
2023/12/07 08:26:14;;;;;;;34.57;16.10;;;;;;;;;;5032769;28;20167;-64
2023/12/07 08:28:42;;;;;;;34.30;15.23;;;;;;;;;;5032547;28;20025;-64
2023/12/07 08:31:08;;;;;;;33.60;16.03;;;;;;;;;;5035469;28;20037;-64
2023/12/07 08:33:39;;;;;;;34.07;16.30;;;;;;;;;;5032309;28;20029;-63
2023/12/07 08:36:04;;;;;;;32.03;15.63;;;;;;;;;;5033921;28;20034;-64
2023/12/07 08:38:29;;;;;;;33.93;16.00;;;;;;;;;;5034084;28;20040;-64
2023/12/07 08:40:54;;;;;;;34.80;15.17;;;;;;;;;;5028188;28;20072;-64
2023/12/07 08:43:21;;;;;;;37.10;16.47;;;;;;;;;;5028692;28;20029;-67
2023/12/07 08:45:46;;;;;;;34.33;15.97;;;;;;;;;;5035027;28;20044;-67
2023/12/07 08:48:12;;;;;;;35.30;15.50;;;;;;;;;;5031874;28;20758;-68
2023/12/07 08:50:37;;;;;;;33.83;15.40;;;;;;;;;;5028424;28;20136;-67
2023/12/07 08:53:03;;;;;;;36.73;16.33;;;;;;;;;;5033769;28;20124;-67
2023/12/07 08:55:29;;;;;;;35.57;16.40;;;;;;;;;;5036940;28;20115;-67
2023/12/07 08:57:54;;;;;;;36.13;16.93;;;;;;;;;;5031526;28;20461;-66
2023/12/07 09:00:23;;;;;;;39.53;16.40;;;;;;;;;;5031738;28;20036;-67
2023/12/07 09:02:49;;;;;;;33.03;16.47;;;;;;;;;;5028636;28;20086;-67
2023/12/07 09:05:14;;;;;;;34.20;15.77;;;;;;;;;;5034604;28;20029;-67
2023/12/07 09:07:40;;;;;;;33.53;16.93;;;;;;;;;;5036979;28;20049;-67
2023/12/07 09:10:05;;;;;;;34.33;16.27;;;;;;;;;;5036859;28;20038;-67
2023/12/07 09:12:30;;;;;;;32.60;15.83;;;;;;;;;;5034574;28;20078;-66
2023/12/07 09:14:55;;;;;;;34.07;16.30;;;;;;;;;;5036764;28;20057;-67
2023/12/07 09:17:21;;;;;;;36.97;16.83;;;;;;;;;;5038534;28;20040;-67
2023/12/07 09:19:46;;;;;;;35.63;16.83;;;;;;;;;;5036306;28;20026;-67
2023/12/07 09:22:13;;;;;;;35.83;16.13;;;;;;;;;;5035717;28;20021;-67
2023/12/07 09:24:39;;;;;;;33.17;16.40;;;;;;;;;;5038577;28;20028;-67
2023/12/07 09:27:04;;;;;;;33.87;17.03;;;;;;;;;;5033879;28;20068;-66
2023/12/07 09:29:30;;;;;;;31.00;15.83;;;;;;;;;;5037124;28;20057;-67
2023/12/07 09:31:55;;;;;;;29.83;14.67;;;;;;;;;;5036742;28;20034;-66
2023/12/07 09:34:20;;;;;;;28.87;14.77;;;;;;;;;;5036765;28;20099;-67
2023/12/07 09:36:46;;;;;;;31.40;15.93;;;;;;;;;;5031288;28;20033;-67
2023/12/07 09:39:11;;;;;;;32.13;15.80;;;;;;;;;;5032928;28;20032;-66
2023/12/07 09:41:37;;;;;;;31.23;16.20;;;;;;;;;;5033811;28;20037;-66
2023/12/07 09:44:03;;;;;;;34.23;17.20;;;;;;;;;;5036758;28;20037;-67
2023/12/07 09:46:29;;;;;;;38.10;16.93;;;;;;;;;;5033347;28;20040;-66
2023/12/07 09:48:55;;;;;;;32.37;16.53;;;;;;;;;;5034376;28;20032;-66
2023/12/07 09:51:20;;;;;;;32.80;16.27;;;;;;;;;;5031250;28;20042;-67
2023/12/07 09:53:48;;;;;;;35.53;15.80;;;;;;;;;;5021319;28;20029;-64
2023/12/07 09:56:13;;;;;;;28.63;15.20;;;;;;;;;;5036978;28;20047;-63
2023/12/07 09:58:39;;;;;;;32.33;15.77;;;;;;;;;;5034353;28;20037;-63
2023/12/07 10:01:05;;;;;;;33.33;16.10;;;;;;;;;;5034823;28;20160;-64
2023/12/07 10:03:30;;;;;;;31.83;15.60;;;;;;;;;;5034386;28;20479;-64
2023/12/07 10:05:57;;;;;;;28.20;14.77;;;;;;;;;;5035987;28;20032;-64
2023/12/07 10:08:40;;;;;;;30.43;15.43;;;;;;;;;;5035817;28;20083;-64
2023/12/07 10:11:05;;;;;;;30.77;15.67;;;;;;;;;;5033310;28;20041;-64
2023/12/07 10:13:31;;;;;;;29.23;15.03;;;;;;;;;;5036178;28;20045;-64
2023/12/07 10:16:06;;;;;;;29.83;15.10;;;;;;;;;;5036323;28;20042;-64
2023/12/07 10:18:31;;;;;;;30.70;15.10;;;;;;;;;;5033104;28;20104;-64
2023/12/07 10:20:57;;;;;;;30.53;15.27;;;;;;;;;;5033001;28;20030;-63
2023/12/07 10:23:25;;;;;;;31.13;16.07;;;;;;;;;;5035429;28;20029;-64
2023/12/07 10:25:50;;;;;;;27.33;14.00;;;;;;;;;;5034114;28;20025;-64
2023/12/07 10:28:16;;;;;;;31.97;15.87;;;;;;;;;;5034547;28;20103;-64
2023/12/07 10:30:43;;;;;;;30.13;15.37;;;;;;;;;;5034797;28;20044;-64
2023/12/07 10:33:09;;;;;;;30.40;14.63;;;;;;;;;;5034912;28;20416;-65
2023/12/07 10:35:41;;;;;;;32.23;14.97;;;;;;;;;;5034254;28;20480;-64
2023/12/07 10:38:07;;;;;;;31.50;14.37;;;;;;;;;;5035587;28;20410;-64
2023/12/07 10:40:32;;;;;;;30.87;15.40;;;;;;;;;;5034178;28;20053;-64
2023/12/07 10:42:58;;;;;;;27.13;14.40;;;;;;;;;;5037792;28;20448;-63
2023/12/07 10:45:27;;;;;;;30.37;14.90;;;;;;;;;;5031308;28;20037;-65
2023/12/07 10:47:53;;;;;;;32.07;15.50;;;;;;;;;;5030396;28;20045;-64
2023/12/07 10:50:23;;;;;;;29.37;15.00;;;;;;;;;;5035289;28;20051;-65
2023/12/07 10:52:54;;;;;;;27.77;14.90;;;;;;;;;;5035067;28;20087;-63
2023/12/07 10:55:28;;;;;;;29.75;14.35;;;;;;;;;;5033828;28;20029;-64
2023/12/07 10:57:55;;;;;;;33.77;15.77;;;;;;;;;;5030080;28;20033;-65
2023/12/07 11:00:23;;;;;;;29.37;15.70;;;;;;;;;;5031946;28;20492;-64
2023/12/07 11:02:52;;;;;;;33.37;15.40;;;;;;;;;;5037058;28;20065;-66
2023/12/07 11:05:17;;;;;;;31.10;14.67;;;;;;;;;;5036153;28;20033;-64
2023/12/07 11:07:58;;;;;;;28.93;14.93;;;;;;;;;;5029989;28;20056;-64
2023/12/07 11:10:28;;;;;;;31.23;15.03;;;;;;;;;;5031064;28;20041;-64
2023/12/07 11:13:00;;;;;;;33.37;16.47;;;;;;;;;;5038618;28;20509;-64
2023/12/07 11:15:26;;;;;;;31.90;15.40;;;;;;;;;;5037118;28;20041;-64
2023/12/07 11:17:53;;;;;;;30.03;15.37;;;;;;;;;;5028607;28;20040;-64
2023/12/07 11:20:21;;;;;;;32.33;16.13;;;;;;;;;;5028207;28;20041;-64
2023/12/07 11:22:48;;;;;;;30.00;15.27;;;;;;;;;;5034208;28;20025;-64
2023/12/07 11:25:14;;;;;;;28.60;14.67;;;;;;;;;;5037167;28;20761;-65
2023/12/07 11:27:40;;;;;;;29.63;14.40;;;;;;;;;;5033680;28;20030;-64
2023/12/07 11:30:06;;;;;;;30.00;15.00;;;;;;;;;;5032133;28;20099;-64
2023/12/07 11:32:32;;;;;;;29.17;15.23;;;;;;;;;;5036052;28;20504;-65
2023/12/07 11:35:06;;;;;;;27.13;14.40;;;;;;;;;;5034394;28;20029;-65
2023/12/07 11:37:50;;;;;;;28.67;15.23;;;;;;;;;;5033717;28;20021;-64
2023/12/07 11:40:17;;;;;;;25.50;14.50;;;;;;;;;;5032236;28;20025;-65
2023/12/07 11:42:43;;;;;;;27.57;14.77;;;;;;;;;;5034198;28;20025;-65
2023/12/07 11:45:08;;;;;;;25.80;13.47;;;;;;;;;;5033459;28;20049;-65
2023/12/07 11:47:34;;;;;;;25.73;13.53;;;;;;;;;;5036901;28;20041;-65
2023/12/07 11:50:02;;;;;;;23.70;12.97;;;;;;;;;;5028444;28;20555;-65
2023/12/07 11:52:28;;;;;;;26.30;12.97;;;;;;;;;;5034957;28;20033;-65
2023/12/07 11:54:53;;;;;;;27.53;13.47;;;;;;;;;;5034214;28;20032;-65
2023/12/07 11:57:18;;;;;;;27.33;13.57;;;;;;;;;;5031879;28;20123;-64
2023/12/07 11:59:44;;;;;;;29.53;14.67;;;;;;;;;;5030739;28;20595;-65
2023/12/07 12:02:12;;;;;;;29.30;15.13;;;;;;;;;;5034605;28;20040;-63
2023/12/07 12:04:38;;;;;;;39.47;20.47;;;;;;;;;;5033207;28;20025;-63
2023/12/07 12:07:03;;;;;;;35.03;17.20;;;;;;;;;;5029978;28;20044;-62
2023/12/07 12:09:29;;;;;;;37.93;20.50;;;;;;;;;;5033584;28;20036;-61
2023/12/07 12:11:54;;;;;;;33.63;16.80;;;;;;;;;;5036652;28;20056;-62
2023/12/07 12:14:19;;;;;;;34.57;16.37;;;;;;;;;;5034742;28;20163;-62
2023/12/07 12:16:45;;;;;;;32.97;17.30;;;;;;;;;;5029190;28;20064;-63
2023/12/07 12:19:11;;;;;;;34.90;17.80;;;;;;;;;;5028619;28;20599;-62
2023/12/07 12:21:39;;;;;;;36.33;18.43;;;;;;;;;;5034627;28;20079;-63
2023/12/07 12:24:05;;;;;;;37.53;18.07;;;;;;;;;;5031675;28;20037;-62
2023/12/07 12:26:31;;;;;;;41.20;20.10;;;;;;;;;;5029733;28;20037;-61
2023/12/07 12:28:56;;;;;;;40.67;20.17;;;;;;;;;;5031979;28;20034;-62
2023/12/07 12:31:22;;;;;;;32.30;17.00;;;;;;;;;;5035668;28;20394;-62
2023/12/07 12:33:49;;;;;;;32.60;16.37;;;;;;;;;;5035449;28;20028;-63
2023/12/07 12:36:16;;;;;;;30.43;15.63;;;;;;;;;;5031461;28;20076;-61
2023/12/07 12:38:42;;;;;;;35.00;18.30;;;;;;;;;;5031568;28;20537;-63
2023/12/07 12:41:08;;;;;;;29.10;15.47;;;;;;;;;;5031567;28;20057;-64
2023/12/07 12:43:34;;;;;;;35.30;17.47;;;;;;;;;;5037374;28;20084;-65
2023/12/07 12:45:59;;;;;;;29.63;13.40;;;;;;;;;;5036891;28;20056;-65
2023/12/07 12:48:24;;;;;;;33.37;16.53;;;;;;;;;;5035058;28;20068;-65
2023/12/07 12:50:49;;;;;;;31.03;15.63;;;;;;;;;;5037873;28;20030;-65
2023/12/07 12:53:15;;;;;;;34.93;16.27;;;;;;;;;;5034904;28;20655;-62
2023/12/07 12:55:41;;;;;;;38.77;17.53;;;;;;;;;;5037001;28;20147;-62
2023/12/07 12:58:07;;;;;;;35.77;16.47;;;;;;;;;;5036973;28;20406;-62
2023/12/07 13:00:33;;;;;;;33.47;15.43;;;;;;;;;;5038538;28;20128;-63
2023/12/07 13:03:03;;;;;;;31.57;15.50;;;;;;;;;;5036380;28;20141;-62
2023/12/07 13:05:28;;;;;;;35.03;15.67;;;;;;;;;;5033763;28;20482;-64
2023/12/07 13:07:54;;;;;;;29.57;14.87;;;;;;;;;;5037290;28;20112;-62
2023/12/07 13:10:20;;;;;;;34.27;15.13;;;;;;;;;;5037876;28;20101;-63
2023/12/07 13:12:45;;;;;;;37.23;16.50;;;;;;;;;;5036303;28;20485;-63
2023/12/07 13:15:12;;;;;;;36.03;18.40;;;;;;;;;;5035179;28;20047;-64
2023/12/07 13:17:38;;;;;;;33.27;16.53;;;;;;;;;;5033850;28;20029;-65
2023/12/07 13:20:04;;;;;;;36.17;16.80;;;;;;;;;;5039025;28;20041;-63
2023/12/07 13:22:29;;;;;;;32.53;14.73;;;;;;;;;;5038124;28;20497;-62
2023/12/07 13:24:55;;;;;;;30.30;14.80;;;;;;;;;;5036685;28;20033;-64
2023/12/07 13:27:20;;;;;;;34.90;14.77;;;;;;;;;;5029360;28;20036;-65
2023/12/07 13:29:45;;;;;;;37.77;15.50;;;;;;;;;;5035626;28;20114;-65
2023/12/07 13:32:11;;;;;;;33.93;14.77;;;;;;;;;;5041312;28;20635;-65
2023/12/07 13:34:37;;;;;;;30.93;14.90;;;;;;;;;;5036585;28;20071;-67
2023/12/07 13:37:02;;;;;;;34.03;15.20;;;;;;;;;;5032701;28;20060;-67
2023/12/07 13:39:29;;;;;;;36.33;15.17;;;;;;;;;;5033868;28;20089;-68
2023/12/07 13:41:55;;;;;;;37.17;15.50;;;;;;;;;;5035934;28;20060;-68
2023/12/07 13:44:21;;;;;;;38.50;15.33;;;;;;;;;;5040081;28;20069;-67
2023/12/07 13:46:46;;;;;;;40.83;17.20;;;;;;;;;;5031692;28;20030;-67
2023/12/07 13:49:11;;;;;;;39.97;15.33;;;;;;;;;;5034586;28;20513;-69
2023/12/07 13:51:39;;;;;;;41.60;16.40;;;;;;;;;;5033156;28;20029;-65
2023/12/07 13:54:05;;;;;;;44.57;17.63;;;;;;;;;;5036373;28;20516;-65
2023/12/07 13:56:30;;;;;;;44.40;17.00;;;;;;;;;;5033821;28;20029;-65
2023/12/07 13:58:55;;;;;;;53.67;19.27;;;;;;;;;;5032099;28;20034;-65
2023/12/07 14:01:21;;;;;;;44.43;18.27;;;;;;;;;;5033604;28;20433;-65
2023/12/07 14:03:46;;;;;;;48.63;18.97;;;;;;;;;;5034968;28;20029;-65
2023/12/07 14:06:20;;;;;;;56.73;20.73;;;;;;;;;;5035898;28;20501;-65
2023/12/07 14:08:46;;;;;;;49.03;17.83;;;;;;;;;;5038340;28;20112;-66